Time;durP1;ratioP1;P1;durP2;ratioP2;P2;SDS_P1;SDS_P2;PMS_P1;PMS_P2;Temp;Humidity;BMP_temperature;BMP_pressure;BME280_temperature;BME280_humidity;BME280_pressure;Samples;Min_cycle;Max_cycle;Signal;HPM_P1;HPM_P2
2022/12/07 00:02:50;;;;;;;1.73;1.50;;;1.40;99.90;;;;;;8454437;27;20236;-79
2022/12/07 00:06:52;;;;;;;1.03;0.90;;;1.40;99.90;;;;;;8439527;27;20184;-76
2022/12/07 00:10:53;;;;;;;1.13;1.00;;;1.40;99.90;;;;;;8455753;27;20207;-81
2022/12/07 00:14:54;;;;;;;1.27;1.07;;;1.40;99.90;;;;;;8441436;27;20267;-77
2022/12/07 00:18:55;;;;;;;1.43;1.10;;;1.40;99.90;;;;;;8443492;27;20191;-76
2022/12/07 00:22:56;;;;;;;1.77;1.20;;;1.30;99.90;;;;;;8456123;27;20550;-78
2022/12/07 00:26:57;;;;;;;0.77;0.77;;;1.30;99.90;;;;;;8435693;27;20184;-77
2022/12/07 00:31:03;;;;;;;1.17;0.90;;;1.30;99.90;;;;;;8436098;27;20240;-77
2022/12/07 00:35:05;;;;;;;0.87;0.80;;;1.30;99.90;;;;;;8432729;27;20198;-79
2022/12/07 00:39:05;;;;;;;1.10;0.77;;;1.20;99.90;;;;;;8451703;27;20175;-79
2022/12/07 00:43:06;;;;;;;0.80;0.80;;;1.20;99.90;;;;;;8434919;27;20199;-80
2022/12/07 00:47:07;;;;;;;0.90;0.80;;;1.10;99.90;;;;;;8435882;27;20233;-80
2022/12/07 00:51:11;;;;;;;0.70;0.70;;;1.10;99.90;;;;;;8441056;27;20213;-78
2022/12/07 00:55:11;;;;;;;0.70;0.70;;;1.10;99.90;;;;;;8436008;27;20175;-77
2022/12/07 00:59:16;;;;;;;0.70;0.70;;;1.00;99.90;;;;;;8436325;27;20203;-78
2022/12/07 01:03:17;;;;;;;0.70;0.70;;;1.00;99.90;;;;;;8434540;27;20195;-75
2022/12/07 01:07:17;;;;;;;0.93;0.70;;;1.00;99.90;;;;;;8434510;27;20197;-78
2022/12/07 01:11:21;;;;;;;1.10;1.00;;;1.00;99.90;;;;;;8435211;28;20206;-78
2022/12/07 01:15:22;;;;;;;0.80;0.80;;;1.00;99.90;;;;;;8437508;28;20176;-79
2022/12/07 01:19:22;;;;;;;1.00;0.90;;;1.00;99.90;;;;;;8432556;28;20187;-79
2022/12/07 01:23:23;;;;;;;0.87;0.80;;;1.00;99.90;;;;;;8436969;28;20190;-78
2022/12/07 01:27:24;;;;;;;1.07;0.97;;;1.00;99.90;;;;;;8442924;28;20476;-77
2022/12/07 01:31:26;;;;;;;1.00;0.90;;;0.90;99.90;;;;;;8432578;28;20219;-78
2022/12/07 01:35:27;;;;;;;0.90;0.80;;;1.00;99.90;;;;;;8436186;28;20180;-78
2022/12/07 01:39:29;;;;;;;1.20;0.90;;;1.00;99.90;;;;;;8436641;28;20202;-78
2022/12/07 01:43:32;;;;;;;0.90;0.90;;;1.00;99.90;;;;;;8439549;28;20562;-78
2022/12/07 01:47:32;;;;;;;1.27;0.90;;;1.00;99.90;;;;;;8443033;27;20192;-78
2022/12/07 01:51:34;;;;;;;0.90;0.90;;;1.00;99.90;;;;;;8435598;27;20292;-81
2022/12/07 01:55:40;;;;;;;0.80;0.80;;;1.10;99.90;;;;;;8443509;27;20190;-77
2022/12/07 01:59:42;;;;;;;0.80;0.80;;;1.10;99.90;;;;;;8456005;27;20199;-78
2022/12/07 02:03:44;;;;;;;1.00;0.90;;;1.00;99.90;;;;;;8439454;27;21304;-76
2022/12/07 02:07:47;;;;;;;0.70;0.70;;;1.00;99.90;;;;;;8444135;27;20184;-77
2022/12/07 02:11:49;;;;;;;0.80;0.80;;;1.10;99.90;;;;;;8441741;27;20215;-78
2022/12/07 02:16:01;;;;;;;1.10;0.80;;;1.10;99.90;;;;;;8447272;27;20171;-79
2022/12/07 02:20:17;;;;;;;0.90;0.90;;;1.10;99.90;;;;;;8445061;27;20218;-79
2022/12/07 02:24:57;;;;;;;0.90;0.90;;;1.10;99.90;;;;;;8444590;27;20209;-78
2022/12/07 02:29:07;;;;;;;1.93;1.00;;;1.10;99.90;;;;;;8427517;27;20315;-78
2022/12/07 02:33:25;;;;;;;1.10;1.03;;;1.10;99.90;;;;;;8441136;27;20195;-75
2022/12/07 02:37:38;;;;;;;1.60;1.30;;;1.20;99.90;;;;;;8441995;27;20448;-76
2022/12/07 02:41:57;;;;;;;1.63;1.30;;;1.20;99.90;;;;;;8443420;27;20217;-77
2022/12/07 02:46:04;;;;;;;1.27;1.10;;;1.20;99.90;;;;;;8447800;27;20248;-80
2022/12/07 02:50:06;;;;;;;1.57;1.43;;;1.30;99.90;;;;;;8453188;27;20218;-76
2022/12/07 02:54:19;;;;;;;1.60;1.40;;;1.30;99.90;;;;;;8443188;27;20269;-79
2022/12/07 02:58:31;;;;;;;2.23;1.93;;;1.40;99.90;;;;;;8441473;27;20306;-75
2022/12/07 03:02:38;;;;;;;1.93;1.60;;;1.40;99.90;;;;;;8425861;27;20188;-80
2022/12/07 03:06:48;;;;;;;2.73;2.30;;;1.50;99.90;;;;;;8456539;27;20182;-81
2022/12/07 03:10:59;;;;;;;3.37;2.30;;;1.50;99.90;;;;;;8445075;27;20221;-80
2022/12/07 03:15:06;;;;;;;5.17;3.67;;;1.50;99.90;;;;;;8441519;27;20216;-78
2022/12/07 03:19:17;;;;;;;5.97;3.17;;;1.50;99.90;;;;;;8440684;27;20187;-79
2022/12/07 03:23:21;;;;;;;6.13;4.03;;;1.60;99.90;;;;;;8446071;27;20185;-76
2022/12/07 03:27:28;;;;;;;7.13;4.37;;;1.60;99.90;;;;;;8458917;27;20482;-79
2022/12/07 03:31:33;;;;;;;6.80;4.33;;;1.60;99.90;;;;;;8435486;27;20231;-77
2022/12/07 03:35:43;;;;;;;7.90;4.77;;;1.60;99.90;;;;;;8432424;27;20192;-80
2022/12/07 03:39:57;;;;;;;7.43;4.37;;;1.60;99.90;;;;;;8446192;27;20192;-78
2022/12/07 03:43:59;;;;;;;7.80;6.10;;;1.70;99.90;;;;;;8443097;27;20271;-78
2022/12/07 03:48:07;;;;;;;8.93;6.47;;;1.70;99.90;;;;;;8440528;27;20208;-78
2022/12/07 03:52:26;;;;;;;8.63;6.80;;;1.70;99.90;;;;;;8434666;27;20199;-77
2022/12/07 03:56:30;;;;;;;11.73;6.53;;;1.70;99.90;;;;;;8459702;27;20192;-76
2022/12/07 04:00:31;;;;;;;11.00;6.90;;;1.70;99.90;;;;;;8451272;27;20207;-76
2022/12/07 04:04:33;;;;;;;10.80;7.00;;;1.70;99.90;;;;;;8436623;27;20288;-76
2022/12/07 04:08:33;;;;;;;13.53;7.67;;;1.70;99.90;;;;;;8438651;27;20547;-79
2022/12/07 04:12:34;;;;;;;12.60;7.47;;;1.60;99.90;;;;;;8441753;27;20188;-76
2022/12/07 04:16:35;;;;;;;12.13;7.50;;;1.70;99.90;;;;;;8440313;27;20188;-80
2022/12/07 04:20:36;;;;;;;12.60;7.40;;;1.70;99.90;;;;;;8430003;27;20233;-79
2022/12/07 04:24:38;;;;;;;11.33;7.73;;;1.70;99.90;;;;;;8434425;27;20211;-75
2022/12/07 04:28:39;;;;;;;11.87;8.10;;;1.70;99.90;;;;;;8430239;27;20211;-81
2022/12/07 04:32:40;;;;;;;11.20;6.93;;;1.70;99.90;;;;;;8438743;27;20199;-80
2022/12/07 04:36:41;;;;;;;9.23;7.00;;;1.60;99.90;;;;;;8455637;27;20176;-77
2022/12/07 04:40:42;;;;;;;11.90;8.07;;;1.60;99.90;;;;;;8444936;27;20194;-79
2022/12/07 04:44:43;;;;;;;11.50;7.80;;;1.60;99.90;;;;;;8457252;27;20183;-76
2022/12/07 04:48:44;;;;;;;12.70;8.23;;;1.60;99.90;;;;;;8436101;27;20223;-76
2022/12/07 04:52:45;;;;;;;10.17;8.00;;;1.60;99.90;;;;;;8445389;27;20290;-78
2022/12/07 04:56:46;;;;;;;12.20;8.73;;;1.60;99.90;;;;;;8439988;27;20199;-76
2022/12/07 05:00:46;;;;;;;13.57;8.27;;;1.60;99.90;;;;;;8434050;27;20194;-76
2022/12/07 05:04:47;;;;;;;11.20;8.17;;;1.60;99.90;;;;;;8432860;27;20530;-78
2022/12/07 05:08:48;;;;;;;11.00;8.37;;;1.60;99.90;;;;;;8437212;27;20249;-78
2022/12/07 05:12:49;;;;;;;11.10;8.20;;;1.60;99.90;;;;;;8432872;27;20172;-80
2022/12/07 05:16:51;;;;;;;11.23;7.60;;;1.50;99.90;;;;;;8432964;28;20179;-77
2022/12/07 05:20:52;;;;;;;10.10;7.77;;;1.50;99.90;;;;;;8437771;28;20233;-76
2022/12/07 05:24:52;;;;;;;10.23;7.27;;;1.50;99.90;;;;;;8437882;28;20348;-79
2022/12/07 05:28:55;;;;;;;9.77;7.07;;;1.40;99.90;;;;;;8435901;28;20260;-79
2022/12/07 05:32:56;;;;;;;8.77;6.67;;;1.30;99.90;;;;;;8453956;28;20216;-78
2022/12/07 05:36:56;;;;;;;11.07;7.23;;;1.30;99.90;;;;;;8439397;28;20186;-76
2022/12/07 05:41:03;;;;;;;8.97;6.60;;;1.10;99.90;;;;;;8439631;28;20219;-78
2022/12/07 05:45:04;;;;;;;10.17;6.93;;;1.00;99.90;;;;;;8435908;28;20579;-76
2022/12/07 05:49:05;;;;;;;10.53;6.90;;;0.90;99.90;;;;;;8440515;28;20214;-80
2022/12/07 05:53:06;;;;;;;10.23;6.93;;;0.80;99.90;;;;;;8432168;28;20184;-76
2022/12/07 05:57:07;;;;;;;10.27;6.67;;;0.70;99.90;;;;;;8438747;28;20211;-77
2022/12/07 06:01:08;;;;;;;8.33;5.97;;;0.70;99.90;;;;;;8428928;28;20195;-80
2022/12/07 06:05:08;;;;;;;8.23;6.00;;;0.60;99.90;;;;;;8432644;28;20188;-79
2022/12/07 06:09:09;;;;;;;9.40;6.33;;;0.60;99.90;;;;;;8432104;28;20208;-77
2022/12/07 06:13:10;;;;;;;8.20;5.90;;;0.60;99.90;;;;;;8435584;28;20191;-77
2022/12/07 06:17:12;;;;;;;10.17;6.50;;;0.60;99.90;;;;;;8435038;28;20179;-80
2022/12/07 06:21:14;;;;;;;11.20;6.67;;;0.70;99.90;;;;;;8437627;28;20191;-75
2022/12/07 06:25:15;;;;;;;12.53;7.20;;;0.70;99.90;;;;;;8440355;28;20184;-78
2022/12/07 06:29:17;;;;;;;10.10;6.93;;;0.70;99.90;;;;;;8440855;28;20571;-78
2022/12/07 06:33:17;;;;;;;13.67;7.77;;;0.80;99.90;;;;;;8448870;27;20207;-78
2022/12/07 06:37:18;;;;;;;11.70;7.20;;;0.80;99.90;;;;;;8442398;27;20179;-80
2022/12/07 06:41:19;;;;;;;11.70;7.13;;;0.80;99.90;;;;;;8444959;27;20665;-78
2022/12/07 06:45:20;;;;;;;10.80;7.43;;;0.80;99.90;;;;;;8449406;27;20183;-76
2022/12/07 06:49:21;;;;;;;12.47;7.57;;;0.70;99.90;;;;;;8440734;27;20207;-75
2022/12/07 06:53:22;;;;;;;13.40;8.77;;;0.70;99.90;;;;;;8441707;27;20514;-81
2022/12/07 06:57:23;;;;;;;14.13;9.23;;;0.80;99.90;;;;;;8444824;27;20237;-76
2022/12/07 07:01:24;;;;;;;15.63;9.33;;;0.90;99.90;;;;;;8438757;27;20184;-77
2022/12/07 07:05:24;;;;;;;13.87;9.00;;;0.90;99.90;;;;;;8466095;27;20191;-76
2022/12/07 07:09:26;;;;;;;15.20;9.67;;;0.90;99.90;;;;;;8458599;27;20207;-79
2022/12/07 07:13:27;;;;;;;13.43;8.50;;;0.80;99.90;;;;;;8453781;27;20180;-80
2022/12/07 07:17:28;;;;;;;14.00;9.27;;;0.70;99.90;;;;;;8443539;27;20186;-76
2022/12/07 07:21:29;;;;;;;15.97;10.10;;;0.60;99.90;;;;;;8443282;27;20190;-76
2022/12/07 07:25:29;;;;;;;18.30;10.20;;;0.50;99.90;;;;;;8449776;27;20274;-76
2022/12/07 07:29:30;;;;;;;14.67;10.23;;;0.50;99.90;;;;;;8444339;27;20204;-77
2022/12/07 07:33:31;;;;;;;17.60;9.83;;;0.50;99.90;;;;;;8437188;27;20203;-76
2022/12/07 07:37:32;;;;;;;16.27;9.60;;;0.50;99.90;;;;;;8441436;27;20195;-80
2022/12/07 07:41:33;;;;;;;15.13;10.30;;;0.40;99.90;;;;;;8439578;27;20247;-80
2022/12/07 07:45:33;;;;;;;14.70;9.93;;;0.40;99.90;;;;;;8435225;27;20194;-77
2022/12/07 07:49:34;;;;;;;16.17;10.23;;;0.50;99.90;;;;;;8437721;27;20199;-76
2022/12/07 07:53:35;;;;;;;19.37;10.87;;;0.50;99.90;;;;;;8461951;27;20195;-78
2022/12/07 07:57:37;;;;;;;20.53;10.90;;;0.80;99.90;;;;;;8452821;27;20223;-79
2022/12/07 08:01:38;;;;;;;18.10;11.30;;;1.00;99.90;;;;;;8431983;27;20183;-76
2022/12/07 08:05:39;;;;;;;17.63;9.93;;;1.20;99.90;;;;;;8441028;27;20188;-76
2022/12/07 08:09:39;;;;;;;13.93;9.77;;;1.40;99.90;;;;;;8439306;27;20210;-79
2022/12/07 08:13:40;;;;;;;14.43;9.27;;;1.60;99.90;;;;;;8446480;27;20184;-79
2022/12/07 08:17:41;;;;;;;15.33;10.03;;;1.70;99.90;;;;;;8443527;27;20187;-79
2022/12/07 08:21:42;;;;;;;14.90;9.63;;;1.80;99.90;;;;;;8451436;27;20274;-78
2022/12/07 08:25:43;;;;;;;12.73;9.57;;;1.90;99.90;;;;;;8438354;27;21519;-76
2022/12/07 08:29:43;;;;;;;13.73;9.00;;;2.10;99.90;;;;;;8439586;27;20213;-78
2022/12/07 08:33:46;;;;;;;11.83;8.63;;;2.20;99.90;;;;;;8443925;27;20202;-80
2022/12/07 08:37:48;;;;;;;14.43;8.77;;;2.30;99.90;;;;;;8438938;27;20176;-76
2022/12/07 08:41:48;;;;;;;14.77;9.77;;;2.40;99.90;;;;;;8454687;27;20242;-79
2022/12/07 08:46:15;;;;;;;13.17;8.93;;;2.50;99.90;;;;;;8439208;27;20180;-79
2022/12/07 08:50:17;;;;;;;11.33;8.40;;;2.50;99.90;;;;;;8424447;27;20226;-77
2022/12/07 08:54:19;;;;;;;11.60;8.17;;;2.60;99.90;;;;;;8438450;27;20190;-75
2022/12/07 08:58:20;;;;;;;13.93;9.40;;;2.60;99.90;;;;;;8455386;27;20546;-80
2022/12/07 09:02:20;;;;;;;11.83;8.53;;;2.50;99.90;;;;;;8428933;27;20187;-80
2022/12/07 09:06:21;;;;;;;12.27;8.10;;;2.60;99.90;;;;;;8448456;27;20179;-80
2022/12/07 09:10:23;;;;;;;13.30;9.27;;;2.50;99.90;;;;;;8429760;28;20203;-80
2022/12/07 09:14:23;;;;;;;11.43;8.10;;;2.60;99.90;;;;;;8431521;28;20189;-78
2022/12/07 09:18:24;;;;;;;11.27;8.00;;;2.60;99.90;;;;;;8433993;28;20184;-76
2022/12/07 09:22:29;;;;;;;12.17;8.40;;;2.60;99.90;;;;;;8436820;28;20246;-77
2022/12/07 09:26:30;;;;;;;10.63;8.17;;;2.60;99.90;;;;;;8437800;28;20225;-75
2022/12/07 09:30:30;;;;;;;12.37;8.77;;;2.60;99.90;;;;;;8432139;28;20200;-77
2022/12/07 09:34:32;;;;;;;13.63;9.47;;;2.70;99.90;;;;;;8442676;28;20199;-79
2022/12/07 09:38:32;;;;;;;13.77;8.30;;;2.60;99.90;;;;;;8438452;28;20187;-79
2022/12/07 09:42:44;;;;;;;12.33;7.83;;;2.70;99.90;;;;;;8432828;28;20176;-79
2022/12/07 09:46:45;;;;;;;12.90;8.80;;;2.70;99.90;;;;;;8437870;28;20180;-78
2022/12/07 09:50:48;;;;;;;10.70;8.30;;;2.80;99.90;;;;;;8429950;28;20212;-80
2022/12/07 09:54:50;;;;;;;12.10;8.47;;;2.90;99.90;;;;;;8440090;28;20215;-78
2022/12/07 09:58:59;;;;;;;12.77;8.93;;;2.90;99.90;;;;;;8437502;28;20202;-79
2022/12/07 10:03:02;;;;;;;10.03;7.40;;;2.90;99.90;;;;;;8443102;28;20242;-79
2022/12/07 10:07:03;;;;;;;10.17;7.73;;;2.90;99.90;;;;;;8429675;27;20194;-76
2022/12/07 10:11:04;;;;;;;11.10;7.90;;;3.00;99.90;;;;;;8449417;27;20221;-76
2022/12/07 10:15:08;;;;;;;10.60;7.40;;;3.00;99.90;;;;;;8443902;27;20180;-75
2022/12/07 10:19:35;;;;;;;8.90;6.53;;;3.00;99.90;;;;;;8443549;27;20191;-80
2022/12/07 10:23:39;;;;;;;9.93;7.03;;;3.00;99.90;;;;;;8428140;27;20192;-77
2022/12/07 10:27:39;;;;;;;8.17;6.57;;;3.10;99.90;;;;;;8437741;27;20209;-79
2022/12/07 10:31:41;;;;;;;9.20;6.13;;;2.90;99.90;;;;;;8444696;27;20220;-79
2022/12/07 10:35:45;;;;;;;8.97;6.10;;;2.90;99.90;;;;;;8440575;27;20219;-80
2022/12/07 10:39:51;;;;;;;8.60;5.50;;;2.90;99.90;;;;;;8434972;27;20183;-78
2022/12/07 10:43:55;;;;;;;8.07;6.30;;;3.00;99.90;;;;;;8456841;27;20183;-79
2022/12/07 10:48:20;;;;;;;8.83;6.17;;;2.90;99.90;;;;;;8443239;27;20234;-76
2022/12/07 10:52:33;;;;;;;8.60;5.90;;;2.90;99.90;;;;;;8443267;27;20554;-77
2022/12/07 10:57:21;;;;;;;9.00;5.67;;;2.90;99.90;;;;;;8426968;27;20212;-75
2022/12/07 11:01:33;;;;;;;9.87;6.00;;;3.00;99.90;;;;;;8463775;27;20211;-76
2022/12/07 11:06:00;;;;;;;8.20;5.50;;;3.20;99.90;;;;;;8441949;27;20374;-76
2022/12/07 11:10:18;;;;;;;8.57;5.50;;;3.30;99.90;;;;;;8454873;27;20204;-79
2022/12/07 11:14:29;;;;;;;6.67;5.37;;;3.20;99.90;;;;;;8440011;27;20185;-76
2022/12/07 11:18:50;;;;;;;6.93;5.10;;;3.20;99.90;;;;;;8438619;27;20187;-80
2022/12/07 11:23:05;;;;;;;6.77;4.77;;;3.10;99.90;;;;;;8435840;27;20175;-80
2022/12/07 11:27:19;;;;;;;7.60;5.30;;;3.10;99.90;;;;;;8457070;27;20163;-76
2022/12/07 11:31:38;;;;;;;7.07;5.50;;;3.10;99.90;;;;;;8463083;27;20207;-78
2022/12/07 11:36:02;;;;;;;7.27;5.03;;;3.20;99.90;;;;;;8426861;27;20638;-77
2022/12/07 11:40:24;;;;;;;6.57;4.33;;;3.30;99.90;;;;;;8439087;27;20291;-77
2022/12/07 11:44:51;;;;;;;7.23;5.30;;;3.40;99.90;;;;;;8437243;27;20243;-75
2022/12/07 11:49:03;;;;;;;5.07;4.00;;;3.50;99.90;;;;;;8432577;27;20196;-76
2022/12/07 11:53:14;;;;;;;6.83;5.10;;;3.70;99.90;;;;;;8442531;27;20192;-75
2022/12/07 11:57:26;;;;;;;7.40;4.53;;;3.70;99.90;;;;;;8429303;27;20286;-77
2022/12/07 12:01:49;;;;;;;9.10;5.57;;;3.60;99.90;;;;;;8457008;27;20188;-76
2022/12/07 12:05:49;;;;;;;7.03;5.20;;;3.50;99.90;;;;;;8444914;27;20182;-75
2022/12/07 12:10:02;;;;;;;6.60;4.60;;;3.60;99.90;;;;;;8439378;27;20200;-78
2022/12/07 12:14:26;;;;;;;5.93;5.03;;;3.60;99.90;;;;;;8456736;27;20227;-78
2022/12/07 12:19:17;;;;;;;7.23;4.73;;;3.70;99.90;;;;;;8424425;27;20202;-76
2022/12/07 12:23:27;;;;;;;7.37;4.30;;;3.80;99.90;;;;;;8426216;27;20182;-78
2022/12/07 12:27:31;;;;;;;5.90;4.80;;;3.70;99.90;;;;;;8452162;27;20195;-77
2022/12/07 12:31:41;;;;;;;6.00;4.73;;;3.70;99.90;;;;;;8455678;27;20207;-75
2022/12/07 12:35:42;;;;;;;7.07;4.20;;;3.60;99.90;;;;;;8438555;27;20188;-77
2022/12/07 12:40:14;;;;;;;6.23;4.23;;;3.60;99.90;;;;;;8434730;27;20218;-75
2022/12/07 12:44:15;;;;;;;6.60;4.73;;;3.50;99.90;;;;;;8452994;27;20176;-77
2022/12/07 12:48:35;;;;;;;9.10;3.80;;;3.50;99.90;;;;;;8436705;27;20201;-77
2022/12/07 12:52:52;;;;;;;4.60;3.20;;;3.40;99.90;;;;;;8447220;27;20187;-77
2022/12/07 12:56:52;;;;;;;3.90;3.33;;;3.40;99.90;;;;;;8458658;27;20196;-77
2022/12/07 13:01:35;;;;;;;4.70;3.57;;;3.30;99.90;;;;;;8433841;27;20328;-75
2022/12/07 13:05:37;;;;;;;4.53;3.50;;;3.30;99.90;;;;;;8407304;27;20222;-75
2022/12/07 13:09:43;;;;;;;4.97;3.60;;;3.30;99.90;;;;;;8437263;27;20238;-76
2022/12/07 13:13:44;;;;;;;6.00;4.27;;;3.30;99.90;;;;;;8458347;27;20179;-79
2022/12/07 13:17:55;;;;;;;3.70;3.27;;;3.20;99.90;;;;;;8435981;27;20190;-75
2022/12/07 13:21:56;;;;;;;5.40;3.50;;;3.20;99.90;;;;;;8449595;28;20195;-77
2022/12/07 13:26:12;;;;;;;4.20;3.80;;;3.10;99.90;;;;;;8437713;28;20179;-79
2022/12/07 13:30:19;;;;;;;5.20;3.77;;;3.10;99.90;;;;;;8438879;28;20210;-77
2022/12/07 13:34:39;;;;;;;5.33;3.50;;;3.10;99.90;;;;;;8458115;28;20199;-78
2022/12/07 13:38:53;;;;;;;5.90;3.90;;;3.20;99.90;;;;;;8449348;28;20179;-77
2022/12/07 13:43:02;;;;;;;4.80;3.77;;;3.20;99.90;;;;;;8440423;27;20228;-80
2022/12/07 13:47:35;;;;;;;5.10;3.57;;;3.30;99.90;;;;;;8455799;27;20192;-75
2022/12/07 13:51:37;;;;;;;5.83;3.47;;;3.20;99.90;;;;;;8444217;27;20285;-77
2022/12/07 13:55:45;;;;;;;5.90;4.07;;;3.20;99.90;;;;;;8444017;27;20180;-76
2022/12/07 13:59:46;;;;;;;7.60;3.60;;;3.10;99.90;;;;;;8453457;27;20192;-77
2022/12/07 14:03:47;;;;;;;5.93;3.93;;;3.10;99.90;;;;;;8441497;27;20261;-77
2022/12/07 14:07:57;;;;;;;4.67;4.00;;;3.00;99.90;;;;;;8440362;27;20187;-76
2022/12/07 14:11:58;;;;;;;4.33;3.60;;;3.00;99.90;;;;;;8444873;27;20234;-79
2022/12/07 14:16:00;;;;;;;4.70;3.90;;;2.90;99.90;;;;;;8451016;27;20211;-79
2022/12/07 14:20:04;;;;;;;5.67;3.70;;;2.90;99.90;;;;;;8446145;27;20190;-75
2022/12/07 14:24:17;;;;;;;6.70;4.03;;;2.90;99.90;;;;;;8442226;27;20259;-77
2022/12/07 14:28:30;;;;;;;6.07;3.67;;;2.90;99.90;;;;;;8440972;27;20192;-75
2022/12/07 14:32:32;;;;;;;4.53;3.70;;;2.90;99.90;;;;;;8458991;27;20192;-75
2022/12/07 14:36:33;;;;;;;5.33;4.20;;;2.90;99.90;;;;;;8433509;27;20234;-78
2022/12/07 14:40:33;;;;;;;6.13;4.10;;;2.80;99.90;;;;;;8442743;27;20189;-76
2022/12/07 14:44:34;;;;;;;4.10;3.23;;;2.80;99.90;;;;;;8437857;27;20176;-79
2022/12/07 14:48:35;;;;;;;4.13;3.00;;;2.70;99.90;;;;;;8436109;27;20180;-75
2022/12/07 14:52:36;;;;;;;4.87;2.50;;;2.60;99.90;;;;;;8442408;27;20178;-80
2022/12/07 14:56:37;;;;;;;7.47;3.07;;;2.50;99.90;;;;;;8438070;27;20249;-76
2022/12/07 15:00:38;;;;;;;4.93;2.63;;;2.50;99.90;;;;;;8445292;27;20245;-79
2022/12/07 15:04:39;;;;;;;4.83;3.60;;;2.50;99.90;;;;;;8438911;27;20190;-79
2022/12/07 15:08:40;;;;;;;3.43;3.13;;;2.50;99.90;;;;;;8441608;27;20271;-75
2022/12/07 15:12:41;;;;;;;5.40;3.07;;;2.50;99.90;;;;;;8439580;27;20232;-78
2022/12/07 15:16:43;;;;;;;3.83;3.40;;;2.50;99.90;;;;;;8439124;27;20224;-79
2022/12/07 15:20:45;;;;;;;6.90;3.10;;;2.50;99.90;;;;;;8439664;27;20519;-80
2022/12/07 15:24:45;;;;;;;3.40;2.80;;;2.50;99.90;;;;;;8436403;27;20176;-79
2022/12/07 15:28:46;;;;;;;3.27;2.63;;;2.40;99.90;;;;;;8457967;27;20247;-76
2022/12/07 15:32:51;;;;;;;4.90;3.53;;;2.40;99.90;;;;;;8451953;27;20269;-76
2022/12/07 15:36:52;;;;;;;4.57;3.33;;;2.30;99.90;;;;;;8442583;27;20222;-76
2022/12/07 15:40:53;;;;;;;4.00;3.50;;;2.30;99.90;;;;;;8439945;27;20183;-75
2022/12/07 15:45:06;;;;;;;7.70;4.10;;;2.30;99.90;;;;;;8455067;27;20418;-76
2022/12/07 15:49:14;;;;;;;8.60;4.17;;;2.30;99.90;;;;;;8456820;27;20286;-78
2022/12/07 15:53:15;;;;;;;5.57;4.30;;;2.30;99.90;;;;;;8441056;27;20186;-79
2022/12/07 15:57:16;;;;;;;5.73;4.27;;;2.20;99.90;;;;;;8438669;27;20196;-77
2022/12/07 16:01:19;;;;;;;6.43;4.27;;;2.10;99.90;;;;;;8440086;27;20303;-80
2022/12/07 16:05:20;;;;;;;6.07;4.23;;;2.10;99.90;;;;;;8454527;27;20176;-76
2022/12/07 16:09:21;;;;;;;7.73;4.33;;;2.10;99.90;;;;;;8434448;27;20302;-76
2022/12/07 16:13:22;;;;;;;5.70;4.03;;;2.00;99.90;;;;;;8437522;27;20176;-79
2022/12/07 16:17:23;;;;;;;5.07;3.83;;;2.00;99.90;;;;;;8442842;27;20225;-79
2022/12/07 16:21:24;;;;;;;5.73;3.83;;;1.90;99.90;;;;;;8427479;27;20187;-79
2022/12/07 16:25:24;;;;;;;4.63;3.53;;;1.80;99.90;;;;;;8439133;27;20195;-78
2022/12/07 16:29:25;;;;;;;6.00;3.90;;;1.80;99.90;;;;;;8433387;27;20266;-76
2022/12/07 16:33:27;;;;;;;7.07;3.33;;;1.70;99.90;;;;;;8435887;27;20200;-80
2022/12/07 16:37:28;;;;;;;5.23;3.30;;;1.70;99.90;;;;;;8442316;27;20191;-77
2022/12/07 16:41:29;;;;;;;5.67;2.93;;;1.60;99.90;;;;;;8439205;27;20267;-78
2022/12/07 16:45:30;;;;;;;4.80;2.83;;;1.50;99.90;;;;;;8443347;27;20191;-75
2022/12/07 16:49:31;;;;;;;5.30;3.77;;;1.40;99.90;;;;;;8439708;27;20247;-79
2022/12/07 16:53:32;;;;;;;4.13;2.77;;;1.30;99.90;;;;;;8450833;27;20191;-76
2022/12/07 16:57:33;;;;;;;4.03;2.93;;;1.30;99.90;;;;;;8435273;27;20271;-77
2022/12/07 17:01:34;;;;;;;7.37;3.37;;;1.20;99.90;;;;;;8435107;27;20187;-79
2022/12/07 17:05:43;;;;;;;6.53;3.57;;;1.20;99.90;;;;;;8451841;27;20295;-78
2022/12/07 17:09:44;;;;;;;5.13;3.57;;;1.10;99.90;;;;;;8437965;27;20200;-80
2022/12/07 17:18:05;;;;;;;5.80;3.87;;;1.10;99.90;;;;;;8449769;27;20194;-75
2022/12/07 17:22:06;;;;;;;6.67;4.03;;;1.00;99.90;;;;;;8432247;27;20183;-78
2022/12/07 17:26:09;;;;;;;7.33;4.13;;;1.00;99.90;;;;;;8436380;28;20190;-77
2022/12/07 17:30:11;;;;;;;8.30;4.60;;;0.90;99.90;;;;;;8457035;28;20246;-76
2022/12/07 17:34:14;;;;;;;8.17;4.53;;;0.90;99.90;;;;;;8439999;28;20319;-78
2022/12/07 17:38:15;;;;;;;6.87;4.80;;;0.90;99.90;;;;;;8454858;28;20496;-76
2022/12/07 17:46:36;;;;;;;6.70;4.90;;;0.70;99.90;;;;;;8455106;28;20198;-75
2022/12/07 17:54:58;;;;;;;8.83;6.03;;;0.70;99.90;;;;;;8455783;28;20270;-78
2022/12/07 17:58:59;;;;;;;9.47;5.63;;;0.70;99.90;;;;;;8433227;28;20202;-80
2022/12/07 18:02:59;;;;;;;10.63;5.77;;;0.60;99.90;;;;;;8434142;28;20277;-76
2022/12/07 18:07:00;;;;;;;8.57;5.17;;;0.60;99.90;;;;;;8440893;28;20199;-76
2022/12/07 18:11:04;;;;;;;8.90;6.43;;;0.60;99.90;;;;;;8437679;28;20207;-78
2022/12/07 18:15:05;;;;;;;9.13;6.43;;;0.50;99.90;;;;;;8441212;28;20186;-77
2022/12/07 18:19:13;;;;;;;9.77;6.80;;;0.50;99.90;;;;;;8455921;28;20206;-76
2022/12/07 18:23:13;;;;;;;13.90;6.83;;;0.50;99.90;;;;;;8451907;28;20184;-78
2022/12/07 18:27:14;;;;;;;11.43;7.57;;;0.60;99.90;;;;;;8435860;28;20215;-81
2022/12/07 18:31:17;;;;;;;10.13;7.57;;;0.60;99.90;;;;;;8446052;27;20275;-81
2022/12/07 18:35:17;;;;;;;10.17;6.43;;;0.60;99.90;;;;;;8445319;27;20221;-78
2022/12/07 18:39:19;;;;;;;8.70;6.47;;;0.60;99.90;;;;;;8448164;27;20275;-79
2022/12/07 18:43:20;;;;;;;8.90;6.10;;;0.60;99.90;;;;;;8450480;27;20187;-75
2022/12/07 18:47:21;;;;;;;8.80;6.50;;;0.60;99.90;;;;;;8423492;27;20207;-80
2022/12/07 18:51:22;;;;;;;9.10;6.83;;;0.70;99.90;;;;;;8443049;27;20206;-78
2022/12/07 18:55:24;;;;;;;9.63;6.17;;;0.70;99.90;;;;;;8438310;27;20502;-76
2022/12/07 19:03:44;;;;;;;9.77;6.40;;;0.80;99.90;;;;;;8457470;27;20265;-76
2022/12/07 19:07:46;;;;;;;8.63;6.53;;;0.80;99.90;;;;;;8437298;27;20184;-78
2022/12/07 19:11:50;;;;;;;8.83;6.23;;;0.80;99.90;;;;;;8426206;27;20204;-80
2022/12/07 19:15:51;;;;;;;8.70;6.10;;;0.80;99.90;;;;;;8458700;27;20186;-79
2022/12/07 19:19:52;;;;;;;10.57;7.03;;;0.90;99.90;;;;;;8458419;27;20184;-80
2022/12/07 19:23:54;;;;;;;8.83;5.50;;;1.00;99.90;;;;;;8446098;27;20527;-76
2022/12/07 19:27:54;;;;;;;10.50;6.57;;;1.20;99.90;;;;;;8444365;27;20274;-79
2022/12/07 19:31:56;;;;;;;9.40;5.73;;;1.30;99.90;;;;;;8433154;27;20247;-78
2022/12/07 19:35:57;;;;;;;9.77;6.47;;;1.30;99.90;;;;;;8453128;27;20234;-76
2022/12/07 19:40:01;;;;;;;9.53;5.80;;;1.40;99.90;;;;;;8432827;27;20239;-79
2022/12/07 19:44:12;;;;;;;7.80;5.47;;;1.50;99.90;;;;;;8438137;27;20208;-78
2022/12/07 19:48:13;;;;;;;8.10;6.73;;;1.60;99.90;;;;;;8436062;27;20184;-76
2022/12/07 19:52:14;;;;;;;8.90;5.50;;;1.70;99.90;;;;;;8440805;27;20527;-78
2022/12/07 19:56:17;;;;;;;8.57;5.63;;;1.70;99.90;;;;;;8454577;27;20290;-80
2022/12/07 20:00:19;;;;;;;8.13;5.90;;;1.80;99.90;;;;;;8441947;27;20280;-77
2022/12/07 20:04:26;;;;;;;5.47;4.77;;;1.80;99.90;;;;;;8438903;27;20192;-75
2022/12/07 20:08:27;;;;;;;8.40;5.00;;;1.80;99.90;;;;;;8439641;27;20195;-78
2022/12/07 20:16:47;;;;;;;5.80;4.90;;;1.70;99.90;;;;;;8455210;27;20195;-75
2022/12/07 20:20:58;;;;;;;8.43;4.60;;;1.70;99.90;;;;;;8439285;27;20270;-77
2022/12/07 20:24:59;;;;;;;7.67;4.47;;;1.60;99.90;;;;;;8446091;27;20195;-77
2022/12/07 20:29:00;;;;;;;5.73;4.63;;;1.40;99.90;;;;;;8429376;27;20268;-79
2022/12/07 20:33:01;;;;;;;6.20;4.73;;;1.30;99.90;;;;;;8455032;27;20190;-77
2022/12/07 20:37:02;;;;;;;4.87;4.37;;;1.20;99.90;;;;;;8441815;27;20240;-78
2022/12/07 20:41:05;;;;;;;5.77;4.57;;;1.10;99.90;;;;;;8437475;27;20263;-77
2022/12/07 20:45:07;;;;;;;5.53;4.13;;;1.00;99.90;;;;;;8434752;27;20624;-76
2022/12/07 20:49:12;;;;;;;6.17;4.77;;;0.90;99.90;;;;;;8434472;27;20196;-78
2022/12/07 20:53:13;;;;;;;9.90;4.97;;;0.90;99.90;;;;;;8448370;27;20197;-76
2022/12/07 20:57:14;;;;;;;7.50;5.07;;;0.90;99.90;;;;;;8429450;28;20468;-78
2022/12/07 21:01:15;;;;;;;7.70;5.50;;;0.80;99.90;;;;;;8420908;27;20433;-75
2022/12/07 21:05:17;;;;;;;6.70;4.93;;;0.80;99.90;;;;;;8445166;27;20194;-75
2022/12/07 21:09:22;;;;;;;8.77;5.40;;;0.70;99.90;;;;;;8415971;27;20512;-76
2022/12/07 21:13:23;;;;;;;8.77;4.93;;;0.80;99.90;;;;;;8434252;27;20184;-78
2022/12/07 21:17:26;;;;;;;9.20;6.13;;;0.90;99.90;;;;;;8438509;27;20204;-79
2022/12/07 21:21:27;;;;;;;7.83;5.47;;;0.90;99.90;;;;;;8437068;27;20191;-77
2022/12/07 21:25:28;;;;;;;8.17;6.13;;;0.90;99.90;;;;;;8440023;28;20278;-76
2022/12/07 21:29:28;;;;;;;9.93;5.63;;;0.80;99.90;;;;;;8417801;28;20279;-75
2022/12/07 21:33:31;;;;;;;8.63;5.67;;;0.80;99.90;;;;;;8438435;28;20234;-75
2022/12/07 21:37:32;;;;;;;7.63;5.37;;;0.90;99.90;;;;;;8441541;28;20180;-80
2022/12/07 21:41:34;;;;;;;8.57;5.70;;;0.90;99.90;;;;;;8440368;28;20358;-76
2022/12/07 21:45:35;;;;;;;9.67;5.73;;;0.90;99.90;;;;;;8458697;28;20190;-78